sensor_id;sensor_type;location;lat;lon;timestamp;P1;durP1;ratioP1;P2;durP2;ratioP2
63050;SDS011;49136;47.416;19.402;2022-11-06T00:00:43;3.67;;;2.13;;
63050;SDS011;49136;47.416;19.402;2022-11-06T00:03:08;3.25;;;1.58;;
63050;SDS011;49136;47.416;19.402;2022-11-06T00:05:37;4.78;;;2.53;;
63050;SDS011;49136;47.416;19.402;2022-11-06T00:08:27;2.85;;;1.67;;
63050;SDS011;49136;47.416;19.402;2022-11-06T00:10:53;2.97;;;2.13;;
63050;SDS011;49136;47.416;19.402;2022-11-06T00:13:19;2.17;;;1.98;;
63050;SDS011;49136;47.416;19.402;2022-11-06T00:15:44;0.95;;;0.95;;
63050;SDS011;49136;47.416;19.402;2022-11-06T00:18:10;1.35;;;0.98;;
63050;SDS011;49136;47.416;19.402;2022-11-06T00:20:35;2.55;;;1.40;;
63050;SDS011;49136;47.416;19.402;2022-11-06T00:23:01;2.08;;;1.45;;
63050;SDS011;49136;47.416;19.402;2022-11-06T00:25:26;2.15;;;1.08;;
63050;SDS011;49136;47.416;19.402;2022-11-06T00:27:51;3.13;;;1.00;;
63050;SDS011;49136;47.416;19.402;2022-11-06T00:30:17;1.75;;;1.25;;
63050;SDS011;49136;47.416;19.402;2022-11-06T00:32:44;1.60;;;1.50;;
63050;SDS011;49136;47.416;19.402;2022-11-06T00:35:10;2.55;;;1.42;;
63050;SDS011;49136;47.416;19.402;2022-11-06T00:37:36;1.10;;;0.88;;
63050;SDS011;49136;47.416;19.402;2022-11-06T00:40:02;2.58;;;1.35;;
63050;SDS011;49136;47.416;19.402;2022-11-06T00:42:27;2.17;;;1.13;;
63050;SDS011;49136;47.416;19.402;2022-11-06T00:44:53;1.33;;;0.85;;
63050;SDS011;49136;47.416;19.402;2022-11-06T00:47:18;2.30;;;0.75;;
63050;SDS011;49136;47.416;19.402;2022-11-06T00:49:44;1.45;;;0.90;;
63050;SDS011;49136;47.416;19.402;2022-11-06T00:52:09;1.55;;;0.98;;
63050;SDS011;49136;47.416;19.402;2022-11-06T00:54:34;1.48;;;1.20;;
63050;SDS011;49136;47.416;19.402;2022-11-06T00:57:00;1.75;;;1.10;;
63050;SDS011;49136;47.416;19.402;2022-11-06T00:59:25;1.08;;;0.63;;
63050;SDS011;49136;47.416;19.402;2022-11-06T01:01:51;3.35;;;1.45;;
63050;SDS011;49136;47.416;19.402;2022-11-06T01:04:17;1.45;;;0.95;;
63050;SDS011;49136;47.416;19.402;2022-11-06T01:06:45;1.15;;;1.05;;
63050;SDS011;49136;47.416;19.402;2022-11-06T01:09:14;1.05;;;0.80;;
63050;SDS011;49136;47.416;19.402;2022-11-06T01:11:42;4.55;;;2.25;;
63050;SDS011;49136;47.416;19.402;2022-11-06T01:14:10;3.83;;;1.25;;
63050;SDS011;49136;47.416;19.402;2022-11-06T01:16:37;1.67;;;1.00;;
63050;SDS011;49136;47.416;19.402;2022-11-06T01:19:03;1.98;;;1.45;;
63050;SDS011;49136;47.416;19.402;2022-11-06T01:21:30;1.75;;;1.30;;
63050;SDS011;49136;47.416;19.402;2022-11-06T01:24:03;4.70;;;1.77;;
63050;SDS011;49136;47.416;19.402;2022-11-06T01:26:34;1.10;;;1.00;;
63050;SDS011;49136;47.416;19.402;2022-11-06T01:29:00;1.33;;;1.10;;
63050;SDS011;49136;47.416;19.402;2022-11-06T01:31:26;1.00;;;0.98;;
63050;SDS011;49136;47.416;19.402;2022-11-06T01:33:55;1.60;;;1.15;;
63050;SDS011;49136;47.416;19.402;2022-11-06T01:36:22;1.42;;;1.33;;
63050;SDS011;49136;47.416;19.402;2022-11-06T01:38:49;2.13;;;1.38;;
63050;SDS011;49136;47.416;19.402;2022-11-06T01:41:20;2.78;;;1.48;;
63050;SDS011;49136;47.416;19.402;2022-11-06T01:43:52;4.35;;;1.70;;
63050;SDS011;49136;47.416;19.402;2022-11-06T01:46:21;1.50;;;1.20;;
63050;SDS011;49136;47.416;19.402;2022-11-06T01:49:01;1.90;;;1.35;;
63050;SDS011;49136;47.416;19.402;2022-11-06T01:51:31;1.30;;;1.00;;
63050;SDS011;49136;47.416;19.402;2022-11-06T01:54:03;1.42;;;1.20;;
63050;SDS011;49136;47.416;19.402;2022-11-06T01:56:29;3.35;;;1.50;;
63050;SDS011;49136;47.416;19.402;2022-11-06T01:58:55;2.78;;;1.00;;
63050;SDS011;49136;47.416;19.402;2022-11-06T02:01:21;2.97;;;1.00;;
63050;SDS011;49136;47.416;19.402;2022-11-06T02:03:49;3.00;;;1.70;;
63050;SDS011;49136;47.416;19.402;2022-11-06T02:06:20;1.42;;;1.15;;
63050;SDS011;49136;47.416;19.402;2022-11-06T02:08:45;1.05;;;0.95;;
63050;SDS011;49136;47.416;19.402;2022-11-06T02:11:11;2.67;;;1.92;;
63050;SDS011;49136;47.416;19.402;2022-11-06T02:16:35;1.50;;;1.40;;
63050;SDS011;49136;47.416;19.402;2022-11-06T02:19:13;1.75;;;1.38;;
63050;SDS011;49136;47.416;19.402;2022-11-06T02:22:09;4.15;;;1.40;;
63050;SDS011;49136;47.416;19.402;2022-11-06T02:24:54;2.03;;;1.05;;
63050;SDS011;49136;47.416;19.402;2022-11-06T02:27:43;2.58;;;1.77;;
63050;SDS011;49136;47.416;19.402;2022-11-06T02:30:15;3.00;;;1.52;;
63050;SDS011;49136;47.416;19.402;2022-11-06T02:35:34;2.58;;;1.45;;
63050;SDS011;49136;47.416;19.402;2022-11-06T02:38:10;3.50;;;1.60;;
63050;SDS011;49136;47.416;19.402;2022-11-06T02:40:39;1.27;;;1.00;;
63050;SDS011;49136;47.416;19.402;2022-11-06T02:43:08;2.13;;;1.38;;
63050;SDS011;49136;47.416;19.402;2022-11-06T02:45:39;2.53;;;1.42;;
63050;SDS011;49136;47.416;19.402;2022-11-06T02:48:09;1.35;;;1.08;;
63050;SDS011;49136;47.416;19.402;2022-11-06T02:50:39;2.92;;;1.48;;
63050;SDS011;49136;47.416;19.402;2022-11-06T02:53:09;1.17;;;0.75;;
63050;SDS011;49136;47.416;19.402;2022-11-06T02:55:39;1.85;;;1.25;;
63050;SDS011;49136;47.416;19.402;2022-11-06T02:58:09;2.08;;;1.75;;
63050;SDS011;49136;47.416;19.402;2022-11-06T03:00:39;1.63;;;1.33;;
63050;SDS011;49136;47.416;19.402;2022-11-06T03:03:11;1.33;;;1.23;;
63050;SDS011;49136;47.416;19.402;2022-11-06T03:05:46;0.82;;;0.82;;
63050;SDS011;49136;47.416;19.402;2022-11-06T03:16:11;2.15;;;1.25;;
63050;SDS011;49136;47.416;19.402;2022-11-06T03:28:18;2.75;;;1.73;;
63050;SDS011;49136;47.416;19.402;2022-11-06T03:30:56;1.48;;;0.93;;
63050;SDS011;49136;47.416;19.402;2022-11-06T03:33:32;0.77;;;0.73;;
63050;SDS011;49136;47.416;19.402;2022-11-06T03:36:04;2.00;;;1.80;;
63050;SDS011;49136;47.416;19.402;2022-11-06T03:38:37;3.72;;;1.20;;
63050;SDS011;49136;47.416;19.402;2022-11-06T03:41:10;4.75;;;1.55;;
63050;SDS011;49136;47.416;19.402;2022-11-06T03:46:06;2.85;;;1.52;;
63050;SDS011;49136;47.416;19.402;2022-11-06T03:48:41;1.98;;;1.10;;
63050;SDS011;49136;47.416;19.402;2022-11-06T03:51:12;2.50;;;1.65;;
63050;SDS011;49136;47.416;19.402;2022-11-06T03:53:52;1.48;;;0.70;;
63050;SDS011;49136;47.416;19.402;2022-11-06T03:56:24;1.90;;;1.30;;
63050;SDS011;49136;47.416;19.402;2022-11-06T03:58:54;1.80;;;1.48;;
63050;SDS011;49136;47.416;19.402;2022-11-06T04:01:23;2.72;;;1.52;;
63050;SDS011;49136;47.416;19.402;2022-11-06T04:03:57;1.50;;;1.30;;
63050;SDS011;49136;47.416;19.402;2022-11-06T04:06:34;2.75;;;1.33;;
63050;SDS011;49136;47.416;19.402;2022-11-06T04:09:04;1.23;;;1.13;;
63050;SDS011;49136;47.416;19.402;2022-11-06T04:11:51;1.88;;;1.42;;
63050;SDS011;49136;47.416;19.402;2022-11-06T04:14:38;2.25;;;1.40;;
63050;SDS011;49136;47.416;19.402;2022-11-06T04:17:09;1.38;;;1.27;;
63050;SDS011;49136;47.416;19.402;2022-11-06T04:19:36;2.25;;;1.70;;
63050;SDS011;49136;47.416;19.402;2022-11-06T04:28:10;2.42;;;1.23;;
63050;SDS011;49136;47.416;19.402;2022-11-06T04:33:31;2.95;;;1.52;;
63050;SDS011;49136;47.416;19.402;2022-11-06T04:41:38;2.45;;;1.80;;
63050;SDS011;49136;47.416;19.402;2022-11-06T04:44:23;1.88;;;0.82;;
63050;SDS011;49136;47.416;19.402;2022-11-06T04:47:03;2.30;;;1.45;;
63050;SDS011;49136;47.416;19.402;2022-11-06T04:49:32;3.00;;;2.13;;
63050;SDS011;49136;47.416;19.402;2022-11-06T04:52:01;2.35;;;1.98;;
63050;SDS011;49136;47.416;19.402;2022-11-06T04:54:30;3.95;;;2.08;;
63050;SDS011;49136;47.416;19.402;2022-11-06T04:57:00;1.45;;;1.35;;
63050;SDS011;49136;47.416;19.402;2022-11-06T04:59:26;3.30;;;1.58;;
63050;SDS011;49136;47.416;19.402;2022-11-06T05:01:54;1.20;;;0.80;;
63050;SDS011;49136;47.416;19.402;2022-11-06T05:04:19;9.40;;;1.73;;
63050;SDS011;49136;47.416;19.402;2022-11-06T05:06:45;2.47;;;1.77;;
63050;SDS011;49136;47.416;19.402;2022-11-06T05:09:11;2.13;;;1.05;;
63050;SDS011;49136;47.416;19.402;2022-11-06T05:11:36;2.60;;;1.33;;
63050;SDS011;49136;47.416;19.402;2022-11-06T05:14:02;4.82;;;2.00;;
63050;SDS011;49136;47.416;19.402;2022-11-06T05:16:28;3.40;;;1.90;;
63050;SDS011;49136;47.416;19.402;2022-11-06T05:18:53;2.10;;;1.25;;
63050;SDS011;49136;47.416;19.402;2022-11-06T05:21:18;2.05;;;0.90;;
63050;SDS011;49136;47.416;19.402;2022-11-06T05:24:03;1.05;;;0.95;;
63050;SDS011;49136;47.416;19.402;2022-11-06T05:26:28;3.17;;;1.83;;
63050;SDS011;49136;47.416;19.402;2022-11-06T05:28:54;3.50;;;1.65;;
63050;SDS011;49136;47.416;19.402;2022-11-06T05:31:19;5.07;;;1.60;;
63050;SDS011;49136;47.416;19.402;2022-11-06T05:33:44;3.78;;;1.70;;
63050;SDS011;49136;47.416;19.402;2022-11-06T05:36:10;1.98;;;1.52;;
63050;SDS011;49136;47.416;19.402;2022-11-06T05:38:35;2.08;;;1.05;;
63050;SDS011;49136;47.416;19.402;2022-11-06T05:41:01;1.27;;;0.88;;
63050;SDS011;49136;47.416;19.402;2022-11-06T05:43:26;6.07;;;3.15;;
63050;SDS011;49136;47.416;19.402;2022-11-06T05:45:51;4.93;;;3.65;;
63050;SDS011;49136;47.416;19.402;2022-11-06T05:48:17;2.63;;;1.85;;
63050;SDS011;49136;47.416;19.402;2022-11-06T05:50:42;4.78;;;2.95;;
63050;SDS011;49136;47.416;19.402;2022-11-06T05:53:08;4.05;;;2.85;;
63050;SDS011;49136;47.416;19.402;2022-11-06T05:55:33;2.80;;;1.38;;
63050;SDS011;49136;47.416;19.402;2022-11-06T05:57:58;3.00;;;1.55;;
63050;SDS011;49136;47.416;19.402;2022-11-06T06:00:24;3.97;;;1.85;;
63050;SDS011;49136;47.416;19.402;2022-11-06T06:02:49;4.13;;;2.17;;
63050;SDS011;49136;47.416;19.402;2022-11-06T06:05:15;11.75;;;3.10;;
63050;SDS011;49136;47.416;19.402;2022-11-06T06:07:41;8.02;;;1.75;;
63050;SDS011;49136;47.416;19.402;2022-11-06T06:10:06;4.50;;;1.77;;
63050;SDS011;49136;47.416;19.402;2022-11-06T06:12:32;8.05;;;1.80;;
63050;SDS011;49136;47.416;19.402;2022-11-06T06:14:58;5.72;;;2.38;;
63050;SDS011;49136;47.416;19.402;2022-11-06T06:17:24;16.83;;;3.33;;
63050;SDS011;49136;47.416;19.402;2022-11-06T06:19:50;4.43;;;1.60;;
63050;SDS011;49136;47.416;19.402;2022-11-06T06:22:15;12.55;;;3.92;;
63050;SDS011;49136;47.416;19.402;2022-11-06T06:24:41;3.58;;;2.05;;
63050;SDS011;49136;47.416;19.402;2022-11-06T06:27:07;4.82;;;2.80;;
63050;SDS011;49136;47.416;19.402;2022-11-06T06:29:32;3.97;;;2.17;;
63050;SDS011;49136;47.416;19.402;2022-11-06T06:31:57;3.38;;;2.00;;
63050;SDS011;49136;47.416;19.402;2022-11-06T06:34:23;2.55;;;1.77;;
63050;SDS011;49136;47.416;19.402;2022-11-06T06:36:49;2.13;;;1.60;;
63050;SDS011;49136;47.416;19.402;2022-11-06T06:39:16;1.65;;;1.38;;
63050;SDS011;49136;47.416;19.402;2022-11-06T06:41:41;2.75;;;1.23;;
63050;SDS011;49136;47.416;19.402;2022-11-06T06:44:07;2.30;;;1.88;;
63050;SDS011;49136;47.416;19.402;2022-11-06T06:46:32;2.80;;;2.10;;
63050;SDS011;49136;47.416;19.402;2022-11-06T06:48:57;7.22;;;2.80;;
63050;SDS011;49136;47.416;19.402;2022-11-06T06:51:23;1.85;;;1.50;;
63050;SDS011;49136;47.416;19.402;2022-11-06T06:53:48;3.20;;;1.70;;
63050;SDS011;49136;47.416;19.402;2022-11-06T06:56:14;6.68;;;2.45;;
63050;SDS011;49136;47.416;19.402;2022-11-06T06:58:39;3.80;;;2.22;;
63050;SDS011;49136;47.416;19.402;2022-11-06T07:01:05;4.22;;;2.45;;
63050;SDS011;49136;47.416;19.402;2022-11-06T07:03:34;3.20;;;1.95;;
63050;SDS011;49136;47.416;19.402;2022-11-06T07:06:00;3.75;;;2.00;;
63050;SDS011;49136;47.416;19.402;2022-11-06T07:08:26;5.15;;;2.83;;
63050;SDS011;49136;47.416;19.402;2022-11-06T07:10:52;16.73;;;3.05;;
63050;SDS011;49136;47.416;19.402;2022-11-06T07:13:17;4.35;;;2.75;;
63050;SDS011;49136;47.416;19.402;2022-11-06T07:15:42;4.57;;;3.20;;
63050;SDS011;49136;47.416;19.402;2022-11-06T07:18:08;7.70;;;2.95;;
63050;SDS011;49136;47.416;19.402;2022-11-06T07:20:34;8.90;;;3.25;;
63050;SDS011;49136;47.416;19.402;2022-11-06T07:23:03;4.28;;;2.80;;
63050;SDS011;49136;47.416;19.402;2022-11-06T07:25:30;13.20;;;3.28;;
63050;SDS011;49136;47.416;19.402;2022-11-06T07:27:58;7.85;;;3.97;;
63050;SDS011;49136;47.416;19.402;2022-11-06T07:30:25;4.22;;;2.28;;
63050;SDS011;49136;47.416;19.402;2022-11-06T07:32:50;8.02;;;3.22;;
63050;SDS011;49136;47.416;19.402;2022-11-06T07:35:16;4.55;;;2.97;;
63050;SDS011;49136;47.416;19.402;2022-11-06T07:37:41;7.95;;;3.80;;
63050;SDS011;49136;47.416;19.402;2022-11-06T07:40:07;4.90;;;2.25;;
63050;SDS011;49136;47.416;19.402;2022-11-06T07:42:34;7.72;;;2.58;;
63050;SDS011;49136;47.416;19.402;2022-11-06T07:45:00;4.80;;;3.05;;
63050;SDS011;49136;47.416;19.402;2022-11-06T07:47:26;5.70;;;3.75;;
63050;SDS011;49136;47.416;19.402;2022-11-06T07:49:54;6.53;;;2.17;;
63050;SDS011;49136;47.416;19.402;2022-11-06T07:52:20;3.35;;;3.03;;
63050;SDS011;49136;47.416;19.402;2022-11-06T07:54:45;6.60;;;3.20;;
63050;SDS011;49136;47.416;19.402;2022-11-06T07:57:11;4.20;;;2.75;;
63050;SDS011;49136;47.416;19.402;2022-11-06T07:59:36;6.65;;;2.40;;
63050;SDS011;49136;47.416;19.402;2022-11-06T08:02:01;5.35;;;2.78;;
63050;SDS011;49136;47.416;19.402;2022-11-06T08:04:27;6.22;;;2.53;;
63050;SDS011;49136;47.416;19.402;2022-11-06T08:06:52;4.18;;;1.77;;
63050;SDS011;49136;47.416;19.402;2022-11-06T08:09:17;5.03;;;2.10;;
63050;SDS011;49136;47.416;19.402;2022-11-06T08:11:43;3.13;;;2.20;;
63050;SDS011;49136;47.416;19.402;2022-11-06T08:14:08;2.80;;;2.13;;
63050;SDS011;49136;47.416;19.402;2022-11-06T08:16:34;5.03;;;2.80;;
63050;SDS011;49136;47.416;19.402;2022-11-06T08:19:00;5.82;;;2.50;;
63050;SDS011;49136;47.416;19.402;2022-11-06T08:21:25;6.53;;;2.15;;
63050;SDS011;49136;47.416;19.402;2022-11-06T08:23:51;3.97;;;1.98;;
63050;SDS011;49136;47.416;19.402;2022-11-06T08:26:16;2.67;;;2.13;;
63050;SDS011;49136;47.416;19.402;2022-11-06T08:28:42;5.00;;;1.52;;
63050;SDS011;49136;47.416;19.402;2022-11-06T08:31:07;5.63;;;2.85;;
63050;SDS011;49136;47.416;19.402;2022-11-06T08:33:34;5.88;;;2.63;;
63050;SDS011;49136;47.416;19.402;2022-11-06T08:36:01;3.75;;;2.00;;
63050;SDS011;49136;47.416;19.402;2022-11-06T08:38:27;4.63;;;2.03;;
63050;SDS011;49136;47.416;19.402;2022-11-06T08:40:53;3.90;;;2.22;;
63050;SDS011;49136;47.416;19.402;2022-11-06T08:43:18;9.57;;;3.70;;
63050;SDS011;49136;47.416;19.402;2022-11-06T08:45:44;3.05;;;1.67;;
63050;SDS011;49136;47.416;19.402;2022-11-06T08:48:10;2.95;;;2.15;;
63050;SDS011;49136;47.416;19.402;2022-11-06T08:50:36;6.13;;;3.20;;
63050;SDS011;49136;47.416;19.402;2022-11-06T08:53:04;4.18;;;1.88;;
63050;SDS011;49136;47.416;19.402;2022-11-06T08:55:31;5.25;;;2.95;;
63050;SDS011;49136;47.416;19.402;2022-11-06T08:57:57;6.32;;;2.47;;
63050;SDS011;49136;47.416;19.402;2022-11-06T09:00:23;2.55;;;1.58;;
63050;SDS011;49136;47.416;19.402;2022-11-06T09:02:49;16.90;;;5.65;;
63050;SDS011;49136;47.416;19.402;2022-11-06T09:05:14;6.25;;;3.40;;
63050;SDS011;49136;47.416;19.402;2022-11-06T09:07:40;6.63;;;3.30;;
63050;SDS011;49136;47.416;19.402;2022-11-06T09:10:05;5.78;;;3.03;;
63050;SDS011;49136;47.416;19.402;2022-11-06T09:12:31;5.57;;;2.92;;
63050;SDS011;49136;47.416;19.402;2022-11-06T09:14:56;10.55;;;4.50;;
63050;SDS011;49136;47.416;19.402;2022-11-06T09:17:21;3.95;;;2.38;;
63050;SDS011;49136;47.416;19.402;2022-11-06T09:19:51;7.10;;;3.05;;
63050;SDS011;49136;47.416;19.402;2022-11-06T09:22:16;10.40;;;3.72;;
63050;SDS011;49136;47.416;19.402;2022-11-06T09:24:42;6.65;;;3.20;;
63050;SDS011;49136;47.416;19.402;2022-11-06T09:27:07;7.10;;;3.33;;
63050;SDS011;49136;47.416;19.402;2022-11-06T09:29:33;7.05;;;3.08;;
63050;SDS011;49136;47.416;19.402;2022-11-06T09:31:58;4.45;;;2.65;;
63050;SDS011;49136;47.416;19.402;2022-11-06T09:34:24;10.35;;;4.38;;
63050;SDS011;49136;47.416;19.402;2022-11-06T09:36:49;21.50;;;6.30;;
63050;SDS011;49136;47.416;19.402;2022-11-06T09:39:14;14.10;;;4.57;;
63050;SDS011;49136;47.416;19.402;2022-11-06T09:44:17;2.95;;;2.22;;
63050;SDS011;49136;47.416;19.402;2022-11-06T09:46:54;17.95;;;4.57;;
63050;SDS011;49136;47.416;19.402;2022-11-06T09:49:36;21.27;;;5.03;;
63050;SDS011;49136;47.416;19.402;2022-11-06T09:52:12;11.23;;;3.72;;
63050;SDS011;49136;47.416;19.402;2022-11-06T09:54:47;4.80;;;2.72;;
63050;SDS011;49136;47.416;19.402;2022-11-06T09:59:44;3.70;;;2.38;;
63050;SDS011;49136;47.416;19.402;2022-11-06T10:05:36;4.57;;;2.33;;
63050;SDS011;49136;47.416;19.402;2022-11-06T10:08:12;7.85;;;2.80;;
63050;SDS011;49136;47.416;19.402;2022-11-06T10:10:43;8.05;;;3.25;;
63050;SDS011;49136;47.416;19.402;2022-11-06T10:13:18;4.68;;;2.80;;
63050;SDS011;49136;47.416;19.402;2022-11-06T10:15:58;4.70;;;2.22;;
63050;SDS011;49136;47.416;19.402;2022-11-06T10:18:36;2.83;;;2.08;;
63050;SDS011;49136;47.416;19.402;2022-11-06T10:21:20;5.70;;;1.98;;
63050;SDS011;49136;47.416;19.402;2022-11-06T10:23:58;5.90;;;2.47;;
63050;SDS011;49136;47.416;19.402;2022-11-06T10:26:50;4.78;;;2.83;;
63050;SDS011;49136;47.416;19.402;2022-11-06T10:35:12;4.90;;;2.40;;
63050;SDS011;49136;47.416;19.402;2022-11-06T10:37:40;11.45;;;2.88;;
63050;SDS011;49136;47.416;19.402;2022-11-06T10:40:28;20.95;;;5.85;;
63050;SDS011;49136;47.416;19.402;2022-11-06T10:42:58;10.35;;;2.35;;
63050;SDS011;49136;47.416;19.402;2022-11-06T10:45:51;3.42;;;2.13;;
63050;SDS011;49136;47.416;19.402;2022-11-06T10:48:38;2.78;;;1.25;;
63050;SDS011;49136;47.416;19.402;2022-11-06T10:53:58;3.17;;;1.75;;
63050;SDS011;49136;47.416;19.402;2022-11-06T10:59:17;5.32;;;1.73;;
63050;SDS011;49136;47.416;19.402;2022-11-06T11:01:42;3.17;;;1.50;;
63050;SDS011;49136;47.416;19.402;2022-11-06T11:04:08;5.57;;;2.22;;
63050;SDS011;49136;47.416;19.402;2022-11-06T11:06:33;1.95;;;1.10;;
63050;SDS011;49136;47.416;19.402;2022-11-06T11:08:58;6.20;;;1.55;;
63050;SDS011;49136;47.416;19.402;2022-11-06T11:11:26;1.38;;;0.77;;
63050;SDS011;49136;47.416;19.402;2022-11-06T11:19:13;5.32;;;1.88;;
63050;SDS011;49136;47.416;19.402;2022-11-06T11:21:59;2.88;;;1.70;;
63050;SDS011;49136;47.416;19.402;2022-11-06T11:25:01;2.20;;;1.60;;
63050;SDS011;49136;47.416;19.402;2022-11-06T11:27:34;3.67;;;1.92;;
63050;SDS011;49136;47.416;19.402;2022-11-06T11:30:03;2.73;;;1.77;;
63050;SDS011;49136;47.416;19.402;2022-11-06T11:32:29;5.10;;;2.35;;
63050;SDS011;49136;47.416;19.402;2022-11-06T11:34:55;2.78;;;1.83;;
63050;SDS011;49136;47.416;19.402;2022-11-06T11:37:23;3.33;;;1.88;;
63050;SDS011;49136;47.416;19.402;2022-11-06T11:39:51;3.22;;;1.80;;
63050;SDS011;49136;47.416;19.402;2022-11-06T11:47:50;5.57;;;2.70;;
63050;SDS011;49136;47.416;19.402;2022-11-06T11:52:48;6.72;;;2.78;;
63050;SDS011;49136;47.416;19.402;2022-11-06T11:55:17;10.02;;;3.58;;
63050;SDS011;49136;47.416;19.402;2022-11-06T11:57:46;9.63;;;3.40;;
63050;SDS011;49136;47.416;19.402;2022-11-06T12:00:15;6.75;;;3.20;;
63050;SDS011;49136;47.416;19.402;2022-11-06T12:02:43;7.53;;;3.40;;
63050;SDS011;49136;47.416;19.402;2022-11-06T12:08:11;5.68;;;3.25;;
63050;SDS011;49136;47.416;19.402;2022-11-06T12:10:45;8.40;;;3.20;;
63050;SDS011;49136;47.416;19.402;2022-11-06T12:13:15;5.65;;;2.92;;
63050;SDS011;49136;47.416;19.402;2022-11-06T12:18:24;5.07;;;2.50;;
63050;SDS011;49136;47.416;19.402;2022-11-06T12:20:58;6.30;;;2.45;;
63050;SDS011;49136;47.416;19.402;2022-11-06T12:23:33;4.72;;;2.22;;
63050;SDS011;49136;47.416;19.402;2022-11-06T12:26:03;3.35;;;2.00;;
63050;SDS011;49136;47.416;19.402;2022-11-06T12:28:30;3.78;;;2.25;;
63050;SDS011;49136;47.416;19.402;2022-11-06T12:31:00;3.70;;;2.40;;
63050;SDS011;49136;47.416;19.402;2022-11-06T12:33:31;5.78;;;2.47;;
63050;SDS011;49136;47.416;19.402;2022-11-06T12:36:01;4.80;;;2.30;;
63050;SDS011;49136;47.416;19.402;2022-11-06T12:43:49;6.43;;;2.60;;
63050;SDS011;49136;47.416;19.402;2022-11-06T12:46:19;5.07;;;2.08;;
63050;SDS011;49136;47.416;19.402;2022-11-06T13:00:22;4.47;;;2.30;;
63050;SDS011;49136;47.416;19.402;2022-11-06T13:06:07;5.45;;;2.65;;
63050;SDS011;49136;47.416;19.402;2022-11-06T13:14:31;5.65;;;2.72;;
63050;SDS011;49136;47.416;19.402;2022-11-06T13:25:14;5.90;;;2.80;;
63050;SDS011;49136;47.416;19.402;2022-11-06T13:27:46;4.20;;;2.55;;
63050;SDS011;49136;47.416;19.402;2022-11-06T13:30:18;5.95;;;3.25;;
63050;SDS011;49136;47.416;19.402;2022-11-06T13:32:46;6.68;;;2.97;;
63050;SDS011;49136;47.416;19.402;2022-11-06T13:35:35;4.75;;;2.53;;
63050;SDS011;49136;47.416;19.402;2022-11-06T13:38:05;6.68;;;3.15;;
63050;SDS011;49136;47.416;19.402;2022-11-06T13:40:33;7.80;;;3.50;;
63050;SDS011;49136;47.416;19.402;2022-11-06T13:56:20;6.10;;;3.35;;
63050;SDS011;49136;47.416;19.402;2022-11-06T14:06:29;7.85;;;3.42;;
63050;SDS011;49136;47.416;19.402;2022-11-06T14:09:00;7.45;;;3.30;;
63050;SDS011;49136;47.416;19.402;2022-11-06T14:11:37;9.43;;;3.88;;
63050;SDS011;49136;47.416;19.402;2022-11-06T14:14:13;8.48;;;3.58;;
63050;SDS011;49136;47.416;19.402;2022-11-06T14:24:56;9.13;;;3.97;;
63050;SDS011;49136;47.416;19.402;2022-11-06T14:30:03;8.23;;;4.18;;
63050;SDS011;49136;47.416;19.402;2022-11-06T14:32:47;8.65;;;4.30;;
63050;SDS011;49136;47.416;19.402;2022-11-06T14:40:34;11.50;;;4.30;;
63050;SDS011;49136;47.416;19.402;2022-11-06T14:43:10;9.52;;;4.68;;
63050;SDS011;49136;47.416;19.402;2022-11-06T14:51:03;8.10;;;4.30;;
63050;SDS011;49136;47.416;19.402;2022-11-06T14:53:33;15.07;;;5.68;;
63050;SDS011;49136;47.416;19.402;2022-11-06T14:56:03;14.40;;;5.25;;
63050;SDS011;49136;47.416;19.402;2022-11-06T14:58:35;14.57;;;4.95;;
63050;SDS011;49136;47.416;19.402;2022-11-06T15:03:34;7.88;;;4.43;;
63050;SDS011;49136;47.416;19.402;2022-11-06T15:12:13;10.27;;;4.95;;
63050;SDS011;49136;47.416;19.402;2022-11-06T15:16:49;11.63;;;5.57;;
63050;SDS011;49136;47.416;19.402;2022-11-06T15:19:23;11.32;;;5.55;;
63050;SDS011;49136;47.416;19.402;2022-11-06T15:21:53;22.77;;;9.93;;
63050;SDS011;49136;47.416;19.402;2022-11-06T15:27:22;14.52;;;6.82;;
63050;SDS011;49136;47.416;19.402;2022-11-06T15:29:51;20.17;;;7.47;;
63050;SDS011;49136;47.416;19.402;2022-11-06T15:32:22;10.13;;;5.47;;
63050;SDS011;49136;47.416;19.402;2022-11-06T15:35:05;10.70;;;5.25;;
63050;SDS011;49136;47.416;19.402;2022-11-06T15:37:38;11.52;;;5.63;;
63050;SDS011;49136;47.416;19.402;2022-11-06T15:45:27;11.10;;;5.38;;
63050;SDS011;49136;47.416;19.402;2022-11-06T15:47:57;14.35;;;6.80;;
63050;SDS011;49136;47.416;19.402;2022-11-06T15:50:31;14.38;;;6.40;;
63050;SDS011;49136;47.416;19.402;2022-11-06T15:55:43;14.82;;;6.65;;
63050;SDS011;49136;47.416;19.402;2022-11-06T16:00:41;22.73;;;9.23;;
63050;SDS011;49136;47.416;19.402;2022-11-06T16:03:11;20.55;;;9.20;;
63050;SDS011;49136;47.416;19.402;2022-11-06T16:05:39;23.85;;;8.68;;
63050;SDS011;49136;47.416;19.402;2022-11-06T16:08:05;17.55;;;8.10;;
63050;SDS011;49136;47.416;19.402;2022-11-06T16:10:31;21.70;;;8.73;;
63050;SDS011;49136;47.416;19.402;2022-11-06T16:13:00;19.70;;;9.45;;
63050;SDS011;49136;47.416;19.402;2022-11-06T16:20:59;19.08;;;9.43;;
63050;SDS011;49136;47.416;19.402;2022-11-06T16:23:40;18.23;;;9.65;;
63050;SDS011;49136;47.416;19.402;2022-11-06T16:26:17;18.50;;;9.82;;
63050;SDS011;49136;47.416;19.402;2022-11-06T16:28:47;28.42;;;13.15;;
63050;SDS011;49136;47.416;19.402;2022-11-06T16:31:15;24.75;;;12.40;;
63050;SDS011;49136;47.416;19.402;2022-11-06T16:36:19;25.58;;;11.60;;
63050;SDS011;49136;47.416;19.402;2022-11-06T16:38:45;28.80;;;11.45;;
63050;SDS011;49136;47.416;19.402;2022-11-06T16:41:11;23.80;;;11.38;;
63050;SDS011;49136;47.416;19.402;2022-11-06T16:49:53;30.80;;;15.23;;
63050;SDS011;49136;47.416;19.402;2022-11-06T16:52:32;33.95;;;16.30;;
63050;SDS011;49136;47.416;19.402;2022-11-06T16:57:58;68.60;;;28.45;;
63050;SDS011;49136;47.416;19.402;2022-11-06T17:00:26;59.33;;;24.95;;
63050;SDS011;49136;47.416;19.402;2022-11-06T17:02:57;45.35;;;21.83;;
63050;SDS011;49136;47.416;19.402;2022-11-06T17:05:33;42.40;;;21.48;;
63050;SDS011;49136;47.416;19.402;2022-11-06T17:10:50;45.97;;;21.88;;
63050;SDS011;49136;47.416;19.402;2022-11-06T17:13:19;49.65;;;22.30;;
63050;SDS011;49136;47.416;19.402;2022-11-06T17:15:57;45.70;;;20.80;;
63050;SDS011;49136;47.416;19.402;2022-11-06T17:21:04;47.80;;;21.10;;
63050;SDS011;49136;47.416;19.402;2022-11-06T17:23:36;49.40;;;20.33;;
63050;SDS011;49136;47.416;19.402;2022-11-06T17:26:02;43.67;;;20.15;;
63050;SDS011;49136;47.416;19.402;2022-11-06T17:28:30;42.85;;;20.10;;
63050;SDS011;49136;47.416;19.402;2022-11-06T17:30:55;37.33;;;18.55;;
63050;SDS011;49136;47.416;19.402;2022-11-06T17:33:21;38.28;;;17.30;;
63050;SDS011;49136;47.416;19.402;2022-11-06T17:35:46;50.65;;;20.83;;
63050;SDS011;49136;47.416;19.402;2022-11-06T17:38:13;36.78;;;16.35;;
63050;SDS011;49136;47.416;19.402;2022-11-06T17:40:39;47.30;;;21.88;;
63050;SDS011;49136;47.416;19.402;2022-11-06T17:43:06;49.15;;;21.35;;
63050;SDS011;49136;47.416;19.402;2022-11-06T17:45:31;49.70;;;20.42;;
63050;SDS011;49136;47.416;19.402;2022-11-06T17:47:56;37.97;;;20.15;;
63050;SDS011;49136;47.416;19.402;2022-11-06T17:50:22;55.67;;;20.20;;
63050;SDS011;49136;47.416;19.402;2022-11-06T17:52:47;50.80;;;20.60;;
63050;SDS011;49136;47.416;19.402;2022-11-06T17:55:13;50.55;;;21.92;;
63050;SDS011;49136;47.416;19.402;2022-11-06T17:57:38;43.67;;;21.08;;
63050;SDS011;49136;47.416;19.402;2022-11-06T18:00:04;47.63;;;20.98;;
63050;SDS011;49136;47.416;19.402;2022-11-06T18:02:30;52.97;;;22.20;;
63050;SDS011;49136;47.416;19.402;2022-11-06T18:04:56;56.47;;;22.25;;